createdAt,value
2022-07-29T00:01:04.360Z,98869.64
2022-07-29T00:03:32.196Z,98870.42
2022-07-29T00:05:59.808Z,98869.73
2022-07-29T00:08:28.571Z,98866.77
2022-07-29T00:10:57.447Z,98867.06
2022-07-29T00:13:32.659Z,98870.65
2022-07-29T00:16:04.601Z,98871.92
2022-07-29T00:18:34.024Z,98871.02
2022-07-29T00:21:01.312Z,98870.88
2022-07-29T00:23:31.643Z,98871.13
2022-07-29T00:26:03.032Z,98868.67
2022-07-29T00:28:30.295Z,98865.17
2022-07-29T00:30:58.062Z,98868.21
2022-07-29T00:33:25.641Z,98866.60
2022-07-29T00:35:54.004Z,98869.50
2022-07-29T00:38:23.063Z,98868.92
2022-07-29T00:40:50.877Z,98871.66
2022-07-29T00:43:18.249Z,98871.70
2022-07-29T00:45:47.339Z,98870.99
2022-07-29T00:48:15.068Z,98865.52
2022-07-29T00:50:44.275Z,98870.74
2022-07-29T00:53:12.017Z,98868.77
2022-07-29T00:55:39.285Z,98870.19
2022-07-29T00:58:06.412Z,98869.87
2022-07-29T01:00:33.736Z,98871.41
2022-07-29T01:03:01.837Z,98864.71
2022-07-29T01:05:48.099Z,98865.98
2022-07-29T01:08:20.797Z,98864.03
2022-07-29T01:10:48.543Z,98858.80
2022-07-29T01:13:16.122Z,98855.96
2022-07-29T01:16:42.395Z,98853.70
2022-07-29T01:19:33.467Z,98850.29
2022-07-29T01:22:01.194Z,98849.48
2022-07-29T01:25:01.708Z,98852.11
2022-07-29T01:27:47.893Z,98844.59
2022-07-29T01:30:15.759Z,98840.65
2022-07-29T01:32:44.189Z,98838.73
2022-07-29T01:35:26.584Z,98839.20
2022-07-29T01:37:57.830Z,98829.39
2022-07-29T01:40:28.526Z,98835.55
2022-07-29T01:42:59.672Z,98833.70
2022-07-29T01:45:50.718Z,98833.96
2022-07-29T01:48:21.189Z,98835.52
2022-07-29T01:51:03.159Z,98836.77
2022-07-29T01:53:37.817Z,98835.48
2022-07-29T01:56:06.472Z,98832.88
2022-07-29T01:58:33.917Z,98832.06
2022-07-29T02:01:01.592Z,98833.61
2022-07-29T02:03:29.396Z,98829.90
2022-07-29T02:05:56.577Z,98832.80
2022-07-29T02:08:24.442Z,98829.91
2022-07-29T02:10:51.683Z,98820.09
2022-07-29T02:13:19.284Z,98824.22
2022-07-29T02:15:47.952Z,98821.52
2022-07-29T02:18:19.153Z,98825.13
2022-07-29T02:20:49.109Z,98826.69
2022-07-29T02:23:20.927Z,98824.25
2022-07-29T02:25:49.718Z,98823.30
2022-07-29T02:28:18.626Z,98822.23
2022-07-29T02:30:46.859Z,98820.89
2022-07-29T02:33:15.835Z,98820.66
2022-07-29T02:35:44.525Z,98818.61
2022-07-29T02:38:35.095Z,98815.58
2022-07-29T02:41:04.561Z,98813.77
2022-07-29T02:43:32.875Z,98814.38
2022-07-29T02:46:00.157Z,98811.29
2022-07-29T02:48:42.623Z,98817.79
2022-07-29T02:51:13.437Z,98817.50
2022-07-29T02:54:00.891Z,98819.71
2022-07-29T02:56:28.913Z,98819.73
2022-07-29T02:58:58.395Z,98824.26
2022-07-29T03:01:30.811Z,98821.34
2022-07-29T03:03:58.404Z,98821.45
2022-07-29T03:06:31.063Z,98826.59
2022-07-29T03:09:13.274Z,98823.94
2022-07-29T03:11:50.351Z,98821.70
2022-07-29T03:14:20.784Z,98822.77
2022-07-29T03:16:48.927Z,98825.79
2022-07-29T03:19:16.321Z,98826.26
2022-07-29T03:21:43.696Z,98829.70
2022-07-29T03:24:12.008Z,98826.38
2022-07-29T03:26:39.776Z,98826.54
2022-07-29T03:29:08.680Z,98826.90
2022-07-29T03:31:40.668Z,98825.02
2022-07-29T03:34:12.104Z,98826.41
2022-07-29T03:36:41.473Z,98824.84
2022-07-29T03:39:12.849Z,98820.50
2022-07-29T03:41:40.154Z,98822.14
2022-07-29T03:44:07.516Z,98822.81
2022-07-29T03:46:35.061Z,98823.08
2022-07-29T03:49:04.216Z,98820.79
2022-07-29T03:51:33.978Z,98826.05
2022-07-29T03:54:09.682Z,98827.98
2022-07-29T03:56:40.775Z,98827.61
2022-07-29T03:59:08.204Z,98827.77
2022-07-29T04:01:36.457Z,98830.35
2022-07-29T04:04:09.266Z,98828.39
2022-07-29T04:06:43.161Z,98834.17
2022-07-29T04:09:10.759Z,98833.63
2022-07-29T04:12:02.197Z,98830.70
2022-07-29T04:14:28.764Z,98829.69
2022-07-29T04:17:00.909Z,98827.34
2022-07-29T04:19:28.844Z,98823.64
2022-07-29T04:21:57.184Z,98828.51
2022-07-29T04:24:24.661Z,98820.17
2022-07-29T04:26:53.280Z,98820.45
2022-07-29T04:29:21.122Z,98822.64
2022-07-29T04:31:48.484Z,98827.61
2022-07-29T04:34:16.184Z,98822.33
2022-07-29T04:36:43.967Z,98825.40
2022-07-29T04:39:12.951Z,98821.67
2022-07-29T04:41:42.361Z,98818.63
2022-07-29T04:44:11.413Z,98816.89
2022-07-29T04:46:41.975Z,98817.81
2022-07-29T04:49:10.226Z,98814.30
2022-07-29T04:51:37.717Z,98813.27
2022-07-29T04:54:06.080Z,98810.16
2022-07-29T04:56:33.545Z,98809.90
2022-07-29T04:59:00.993Z,98814.73
2022-07-29T05:01:28.810Z,98815.76
2022-07-29T05:04:00.648Z,98813.73
2022-07-29T05:06:28.885Z,98816.80
2022-07-29T05:08:59.641Z,98812.45
2022-07-29T05:11:30.519Z,98806.20
2022-07-29T05:14:01.789Z,98802.99
2022-07-29T05:16:29.130Z,98803.27
2022-07-29T05:18:59.465Z,98803.52
2022-07-29T05:21:27.033Z,98805.53
2022-07-29T05:23:54.277Z,98805.79
2022-07-29T05:26:21.488Z,98807.30
2022-07-29T05:28:48.950Z,98807.56
2022-07-29T05:31:16.380Z,98807.25
2022-07-29T05:33:44.144Z,98804.48
2022-07-29T05:36:11.416Z,98805.90
2022-07-29T05:38:39.077Z,98803.22
2022-07-29T05:41:06.819Z,98801.70
2022-07-29T05:43:34.212Z,98799.26
2022-07-29T05:46:01.492Z,98799.58
2022-07-29T05:48:29.047Z,98802.89
2022-07-29T05:50:56.914Z,98799.79
2022-07-29T05:53:24.141Z,98801.41
2022-07-29T05:55:51.793Z,98803.49
2022-07-29T05:58:19.379Z,98805.42
2022-07-29T06:01:00.309Z,98803.55
2022-07-29T06:03:27.801Z,98805.09
2022-07-29T06:05:55.162Z,98807.92
2022-07-29T06:08:27.688Z,98808.33
2022-07-29T06:10:55.472Z,98804.11
2022-07-29T06:13:22.947Z,98805.69
2022-07-29T06:15:54.415Z,98807.54
2022-07-29T06:18:24.797Z,98808.08
2022-07-29T06:20:55.002Z,98811.38
2022-07-29T06:23:23.596Z,98814.05
2022-07-29T06:25:51.395Z,98813.80
2022-07-29T06:28:20.242Z,98807.27
2022-07-29T06:30:47.629Z,98808.19
2022-07-29T06:33:19.790Z,98805.62
2022-07-29T06:35:53.110Z,98806.52
2022-07-29T06:38:31.593Z,98805.94
2022-07-29T06:41:11.168Z,98807.31
2022-07-29T06:43:51.943Z,98805.30
2022-07-29T06:46:21.446Z,98806.33
2022-07-29T06:48:49.130Z,98806.73
2022-07-29T06:51:22.201Z,98808.43
2022-07-29T06:53:58.353Z,98805.98
2022-07-29T06:56:31.740Z,98802.92
2022-07-29T06:58:59.148Z,98803.40
2022-07-29T07:01:30.637Z,98802.34
2022-07-29T07:03:58.006Z,98804.72
2022-07-29T07:06:25.372Z,98804.66
2022-07-29T07:08:53.614Z,98807.39
2022-07-29T07:11:20.898Z,98810.16
2022-07-29T07:13:49.009Z,98799.73
2022-07-29T07:16:16.943Z,98798.09
2022-07-29T07:18:48.045Z,98804.02
2022-07-29T07:21:19.012Z,98802.31
2022-07-29T07:23:47.490Z,98803.86
2022-07-29T07:26:15.649Z,98802.96
2022-07-29T07:28:43.072Z,98802.55
2022-07-29T07:31:11.159Z,98802.02
2022-07-29T07:33:39.772Z,98806.02
2022-07-29T07:36:07.295Z,98806.97
2022-07-29T07:38:37.662Z,98805.13
2022-07-29T07:41:05.036Z,98805.13
2022-07-29T07:43:33.188Z,98803.20
2022-07-29T07:46:01.882Z,98804.58
2022-07-29T07:48:29.606Z,98801.59
2022-07-29T07:50:57.386Z,98800.52
2022-07-29T07:53:25.162Z,98799.09
2022-07-29T07:56:09.778Z,98801.29
2022-07-29T07:58:38.144Z,98807.66
2022-07-29T08:01:05.431Z,98806.98
2022-07-29T08:03:35.246Z,98809.28
2022-07-29T08:06:04.885Z,98817.08
2022-07-29T08:08:32.306Z,98816.27
2022-07-29T08:11:02.217Z,98817.35
2022-07-29T08:13:33.084Z,98818.39
2022-07-29T08:16:12.614Z,98821.30
2022-07-29T08:18:40.751Z,98820.08
2022-07-29T08:21:09.366Z,98823.36
2022-07-29T08:23:50.515Z,98824.95
2022-07-29T08:26:24.657Z,98821.87
2022-07-29T08:28:51.965Z,98822.94
2022-07-29T08:31:19.359Z,98818.44
2022-07-29T08:33:47.450Z,98819.93
2022-07-29T08:36:14.792Z,98821.73
2022-07-29T08:38:42.031Z,98815.42
2022-07-29T08:41:09.485Z,98813.04
2022-07-29T08:43:38.607Z,98813.67
2022-07-29T08:46:06.143Z,98814.59
2022-07-29T08:48:33.590Z,98814.05
2022-07-29T08:51:02.497Z,98817.23
2022-07-29T08:53:31.707Z,98814.09
2022-07-29T08:56:00.576Z,98815.73
2022-07-29T08:58:28.146Z,98819.61
2022-07-29T09:00:56.374Z,98821.53
2022-07-29T09:03:33.486Z,98820.39
2022-07-29T09:06:00.765Z,98819.08
2022-07-29T09:08:28.584Z,98813.67
2022-07-29T09:10:59.513Z,98816.83
2022-07-29T09:13:28.275Z,98813.96
2022-07-29T09:15:57.277Z,98812.35
2022-07-29T09:18:40.453Z,98808.27
2022-07-29T09:21:28.977Z,98807.17
2022-07-29T09:24:12.992Z,98812.44
2022-07-29T09:26:50.064Z,98808.77
2022-07-29T09:29:18.842Z,98805.23
2022-07-29T09:31:53.844Z,98804.77
2022-07-29T09:34:24.732Z,98803.98
2022-07-29T09:36:53.281Z,98802.38
2022-07-29T09:39:38.565Z,98801.26
2022-07-29T09:42:07.272Z,98797.36
2022-07-29T09:44:44.550Z,98798.86
2022-07-29T09:47:12.764Z,98794.40
2022-07-29T09:49:54.870Z,98793.48
2022-07-29T09:52:22.955Z,98792.27
2022-07-29T09:54:55.333Z,98795.03
2022-07-29T09:57:28.650Z,98792.67
2022-07-29T10:00:00.955Z,98793.78
2022-07-29T10:02:34.484Z,98793.37
2022-07-29T10:05:03.104Z,98787.05
2022-07-29T10:07:50.578Z,98784.40
2022-07-29T10:10:38.081Z,98783.18
2022-07-29T10:13:16.634Z,98781.92
2022-07-29T10:16:36.947Z,98772.76
2022-07-29T10:19:34.183Z,98767.91
2022-07-29T10:22:05.032Z,98769.02
2022-07-29T10:24:32.348Z,98764.89
2022-07-29T10:27:00.903Z,98760.45
2022-07-29T10:29:29.931Z,98753.22
2022-07-29T10:32:11.151Z,98750.03
2022-07-29T10:34:57.826Z,98746.98
2022-07-29T10:38:02.807Z,98747.79
2022-07-29T10:41:19.657Z,98741.55
2022-07-29T10:43:51.252Z,98742.71
2022-07-29T10:46:19.917Z,98738.58
2022-07-29T10:49:25.204Z,98738.38
2022-07-29T10:51:57.650Z,98735.32
2022-07-29T10:54:42.483Z,98730.13
2022-07-29T10:57:13.880Z,98727.83
2022-07-29T10:59:42.957Z,98733.51
2022-07-29T11:02:43.983Z,98724.05
2022-07-29T11:05:18.086Z,98720.86
2022-07-29T11:08:19.907Z,98727.23
2022-07-29T11:10:50.014Z,98719.36
2022-07-29T11:13:47.337Z,98718.04
2022-07-29T11:16:17.190Z,98714.71
2022-07-29T11:19:24.740Z,98715.23
2022-07-29T11:21:55.465Z,98705.65
2022-07-29T11:24:30.247Z,98705.46
2022-07-29T11:27:21.189Z,98703.59
2022-07-29T11:29:56.386Z,98700.27
2022-07-29T11:32:36.886Z,98703.82
2022-07-29T11:35:17.713Z,98701.41
2022-07-29T11:40:35.200Z,98696.75
2022-07-29T11:43:07.355Z,98693.85
2022-07-29T11:45:50.857Z,98688.29
2022-07-29T11:48:31.683Z,98685.80
2022-07-29T11:51:00.280Z,98684.48
2022-07-29T11:53:29.131Z,98685.88
2022-07-29T11:56:05.848Z,98681.27
2022-07-29T11:58:34.458Z,98681.77
2022-07-29T12:01:04.531Z,98675.08
2022-07-29T12:03:36.906Z,98672.48
2022-07-29T12:06:13.374Z,98674.56
2022-07-29T12:08:43.807Z,98673.19
2022-07-29T12:11:21.263Z,98670.23
2022-07-29T12:13:54.408Z,98676.98
2022-07-29T12:16:40.960Z,98676.20
2022-07-29T12:19:08.967Z,98672.69
2022-07-29T12:21:56.990Z,98671.66
2022-07-29T12:24:27.381Z,98671.05
2022-07-29T12:26:57.280Z,98668.30
2022-07-29T12:29:35.075Z,98667.21
2022-07-29T12:32:05.772Z,98662.96
2022-07-29T12:34:33.362Z,98663.32
2022-07-29T12:37:04.413Z,98664.70
2022-07-29T12:39:33.526Z,98666.96
2022-07-29T12:42:04.861Z,98663.29
2022-07-29T12:44:48.717Z,98659.41
2022-07-29T12:47:21.881Z,98655.13
2022-07-29T12:50:22.129Z,98660.77
2022-07-29T12:52:53.092Z,98657.70
2022-07-29T12:55:42.853Z,98663.41
2022-07-29T12:58:10.402Z,98659.13
2022-07-29T13:00:38.826Z,98654.61
2022-07-29T13:03:07.290Z,98650.13
2022-07-29T13:05:48.543Z,98646.65
2022-07-29T13:08:20.441Z,98646.88
2022-07-29T13:10:51.270Z,98646.20
2022-07-29T13:13:18.983Z,98645.13
2022-07-29T13:15:50.044Z,98647.41
2022-07-29T13:18:28.851Z,98645.70
2022-07-29T13:20:57.144Z,98644.86
2022-07-29T13:23:24.793Z,98639.99
2022-07-29T13:25:53.489Z,98634.00
2022-07-29T13:28:22.815Z,98630.19
2022-07-29T13:30:53.721Z,98627.86
2022-07-29T13:33:21.476Z,98631.57
2022-07-29T13:35:48.894Z,98634.77
2022-07-29T13:38:16.771Z,98632.27
2022-07-29T13:40:44.811Z,98626.52
2022-07-29T13:43:16.501Z,98618.92
2022-07-29T13:45:43.927Z,98622.75
2022-07-29T13:48:12.489Z,98622.52
2022-07-29T13:50:39.865Z,98621.91
2022-07-29T13:53:07.125Z,98625.48
2022-07-29T13:55:34.411Z,98619.54
2022-07-29T13:58:01.904Z,98611.85
2022-07-29T14:00:32.496Z,98608.91
2022-07-29T14:02:59.883Z,98605.89
2022-07-29T14:05:27.399Z,98604.72
2022-07-29T14:07:55.401Z,98604.95
2022-07-29T14:10:22.875Z,98601.42
2022-07-29T14:12:53.541Z,98599.28
2022-07-29T14:15:21.440Z,98599.33
2022-07-29T14:17:50.802Z,98597.45
2022-07-29T14:20:18.972Z,98598.92
2022-07-29T14:22:57.442Z,98598.41
2022-07-29T14:25:25.523Z,98602.31
2022-07-29T14:27:54.300Z,98598.25
2022-07-29T14:30:26.717Z,98598.73
2022-07-29T14:32:54.080Z,98596.61
2022-07-29T14:35:26.769Z,98592.03
2022-07-29T14:37:54.160Z,98589.66
2022-07-29T14:40:22.578Z,98594.20
2022-07-29T14:42:50.300Z,98597.14
2022-07-29T14:45:25.852Z,98594.41
2022-07-29T14:47:53.414Z,98593.72
2022-07-29T14:50:31.282Z,98587.73
2022-07-29T14:53:01.477Z,98587.08
2022-07-29T14:55:28.803Z,98588.85
2022-07-29T14:58:05.810Z,98587.79
2022-07-29T15:00:37.887Z,98583.20
2022-07-29T15:03:11.699Z,98573.29
2022-07-29T15:05:39.780Z,98563.02
2022-07-29T15:08:10.822Z,98563.17
2022-07-29T15:10:40.259Z,98563.77
2022-07-29T15:13:08.608Z,98555.94
2022-07-29T15:15:38.005Z,98553.42
2022-07-29T15:18:05.916Z,98544.48
2022-07-29T15:20:34.045Z,98544.80
2022-07-29T15:23:02.757Z,98545.61
2022-07-29T15:25:37.266Z,98554.31
2022-07-29T15:28:10.119Z,98559.54
2022-07-29T15:30:41.925Z,98569.40
2022-07-29T15:33:12.938Z,98574.73
2022-07-29T15:35:40.974Z,98582.09
2022-07-29T15:38:09.016Z,98586.50
2022-07-29T15:40:38.994Z,98585.55
2022-07-29T15:43:09.355Z,98585.58
2022-07-29T15:45:41.070Z,98585.71
2022-07-29T15:48:09.427Z,98605.45
2022-07-29T15:50:37.443Z,98621.38
2022-07-29T15:53:07.260Z,98631.41
2022-07-29T15:55:34.587Z,98643.39
2022-07-29T15:58:05.140Z,98655.72
2022-07-29T16:00:32.557Z,98661.52
2022-07-29T16:03:03.532Z,98658.19
2022-07-29T16:05:36.216Z,98670.61
2022-07-29T16:08:05.178Z,98674.41
2022-07-29T16:10:32.407Z,98671.15
2022-07-29T16:13:04.541Z,98663.63
2022-07-29T16:15:31.986Z,98656.36
2022-07-29T16:18:14.081Z,98667.01
2022-07-29T16:20:42.140Z,98659.05
2022-07-29T16:23:12.248Z,98663.03
2022-07-29T16:25:59.069Z,98666.84
2022-07-29T16:28:28.344Z,98673.26
2022-07-29T16:30:58.677Z,98674.83
2022-07-29T16:33:27.213Z,98678.34
2022-07-29T16:36:03.666Z,98673.06
2022-07-29T16:38:32.532Z,98674.63
2022-07-29T16:41:06.338Z,98671.23
2022-07-29T16:43:37.127Z,98666.36
2022-07-29T16:46:39.016Z,98670.20
2022-07-29T16:49:32.065Z,98678.68
2022-07-29T16:52:08.353Z,98691.10
2022-07-29T16:54:52.722Z,98698.85
2022-07-29T16:57:19.937Z,98697.20
2022-07-29T16:59:47.496Z,98694.83
2022-07-29T17:02:20.200Z,98690.11
2022-07-29T17:04:47.822Z,98686.30
2022-07-29T17:07:16.261Z,98686.89
2022-07-29T17:09:44.420Z,98688.54
2022-07-29T17:12:11.957Z,98695.21
2022-07-29T17:14:40.268Z,98697.90
2022-07-29T17:17:13.797Z,98700.83
2022-07-29T17:19:44.794Z,98704.46
2022-07-29T17:22:18.703Z,98702.29
2022-07-29T17:24:48.057Z,98704.95
2022-07-29T17:27:16.735Z,98705.27
2022-07-29T17:29:44.080Z,98708.52
2022-07-29T17:32:11.552Z,98704.98
2022-07-29T17:34:39.508Z,98708.70
2022-07-29T17:37:08.155Z,98708.64
2022-07-29T17:39:36.282Z,98714.09
2022-07-29T17:42:04.229Z,98713.58
2022-07-29T17:44:31.534Z,98717.23
2022-07-29T17:47:00.984Z,98715.59
2022-07-29T17:49:32.208Z,98712.81
2022-07-29T17:52:01.160Z,98712.17
2022-07-29T17:54:28.980Z,98707.10
2022-07-29T17:56:57.230Z,98704.15
2022-07-29T17:59:24.699Z,98702.21
2022-07-29T18:01:53.301Z,98703.86
2022-07-29T18:04:23.562Z,98699.02
2022-07-29T18:07:01.699Z,98699.19
2022-07-29T18:09:35.192Z,98696.17
2022-07-29T18:12:23.564Z,98697.10
2022-07-29T18:14:52.198Z,98697.16
2022-07-29T18:17:19.648Z,98700.39
2022-07-29T18:19:48.300Z,98702.76
2022-07-29T18:22:17.678Z,98698.88
2022-07-29T18:24:45.793Z,98699.38
2022-07-29T18:27:14.164Z,98704.87
2022-07-29T18:29:41.687Z,98710.79
2022-07-29T18:32:09.764Z,98710.10
2022-07-29T18:34:38.743Z,98708.58
2022-07-29T18:37:07.995Z,98716.90
2022-07-29T18:39:36.522Z,98713.11
2022-07-29T18:42:06.461Z,98716.89
2022-07-29T18:44:34.122Z,98718.30
2022-07-29T18:47:11.362Z,98717.75
2022-07-29T18:49:39.555Z,98718.27
2022-07-29T18:52:13.064Z,98710.56
2022-07-29T18:54:40.594Z,98711.64
2022-07-29T18:57:54.863Z,98706.54
2022-07-29T18:59:58.253Z,98700.50
2022-07-29T19:02:25.541Z,98698.50
2022-07-29T19:04:52.867Z,98695.47
2022-07-29T19:07:39.931Z,98693.73
2022-07-29T19:10:08.595Z,98692.00
2022-07-29T19:12:39.263Z,98692.48
2022-07-29T19:15:08.146Z,98690.54
2022-07-29T19:17:39.361Z,98687.47
2022-07-29T19:20:07.737Z,98684.48
2022-07-29T19:22:37.308Z,98681.20
2022-07-29T19:25:05.517Z,98684.14
2022-07-29T19:27:33.254Z,98689.23
2022-07-29T19:30:03.389Z,98689.20
2022-07-29T19:32:32.980Z,98691.79
2022-07-29T19:35:19.680Z,98695.39
2022-07-29T19:37:46.969Z,98699.77
2022-07-29T19:40:16.231Z,98696.60
2022-07-29T19:42:44.124Z,98693.89
2022-07-29T19:45:11.888Z,98691.98
2022-07-29T19:47:40.559Z,98689.98
2022-07-29T19:50:09.179Z,98686.91
2022-07-29T19:52:36.590Z,98687.12
2022-07-29T19:55:07.538Z,98685.89
2022-07-29T19:57:41.013Z,98684.09
2022-07-29T20:00:11.435Z,98683.09
2022-07-29T20:02:41.666Z,98688.23
2022-07-29T20:05:09.679Z,98685.95
2022-07-29T20:07:41.978Z,98688.45
2022-07-29T20:10:10.104Z,98687.37
2022-07-29T20:12:42.702Z,98687.96
2022-07-29T20:15:16.391Z,98685.89
2022-07-29T20:17:45.695Z,98687.20
2022-07-29T20:20:13.871Z,98682.10
2022-07-29T20:22:41.046Z,98676.42
2022-07-29T20:25:10.021Z,98675.27
2022-07-29T20:27:39.478Z,98675.59
2022-07-29T20:30:08.330Z,98676.46
2022-07-29T20:32:35.938Z,98675.52
2022-07-29T20:35:07.104Z,98677.95
2022-07-29T20:37:52.118Z,98684.25
2022-07-29T20:40:25.558Z,98689.59
2022-07-29T20:42:53.932Z,98686.38
2022-07-29T20:45:22.847Z,98684.86
2022-07-29T20:47:51.859Z,98681.58
2022-07-29T20:50:23.842Z,98687.88
2022-07-29T20:52:53.135Z,98691.11
2022-07-29T20:55:21.064Z,98695.11
2022-07-29T20:57:48.738Z,98694.88
2022-07-29T21:00:16.257Z,98696.48
2022-07-29T21:02:44.262Z,98695.02
2022-07-29T21:05:11.784Z,98700.55
2022-07-29T21:07:39.046Z,98700.98
2022-07-29T21:10:06.831Z,98704.01
2022-07-29T21:12:42.359Z,98707.41
2022-07-29T21:15:16.405Z,98706.64
2022-07-29T21:17:47.341Z,98706.30
2022-07-29T21:20:15.751Z,98706.70
2022-07-29T21:22:43.117Z,98705.71
2022-07-29T21:25:11.080Z,98706.40
2022-07-29T21:28:02.093Z,98708.50
2022-07-29T21:30:31.335Z,98717.68
2022-07-29T21:32:59.703Z,98717.55
2022-07-29T21:35:35.590Z,98720.07
2022-07-29T21:38:17.128Z,98728.77
2022-07-29T21:40:47.863Z,98729.09
2022-07-29T21:43:15.428Z,98720.85
2022-07-29T21:45:43.850Z,98720.39
2022-07-29T21:48:11.921Z,98723.71
2022-07-29T21:50:39.215Z,98722.60
2022-07-29T21:53:15.851Z,98720.59
2022-07-29T21:55:43.757Z,98723.27
2022-07-29T21:58:15.599Z,98724.87
2022-07-29T22:00:43.114Z,98724.78
2022-07-29T22:03:10.619Z,98725.25
2022-07-29T22:05:38.026Z,98725.48
2022-07-29T22:08:05.630Z,98722.55
2022-07-29T22:10:36.783Z,98719.17
2022-07-29T22:13:04.073Z,98719.55
2022-07-29T22:15:36.388Z,98717.77
2022-07-29T22:18:10.538Z,98718.79
2022-07-29T22:20:38.897Z,98715.19
2022-07-29T22:23:10.102Z,98714.44
2022-07-29T22:25:40.685Z,98711.30
2022-07-29T22:28:08.668Z,98712.95
2022-07-29T22:30:36.035Z,98710.89
2022-07-29T22:33:04.259Z,98708.11
2022-07-29T22:35:32.963Z,98698.29
2022-07-29T22:38:00.441Z,98696.30
2022-07-29T22:40:30.591Z,98698.45
2022-07-29T22:42:58.188Z,98690.94
2022-07-29T22:45:28.763Z,98693.13
2022-07-29T22:47:58.965Z,98693.92
2022-07-29T22:50:26.769Z,98689.86
2022-07-29T22:52:53.843Z,98687.52
2022-07-29T22:55:21.343Z,98685.02
2022-07-29T22:57:48.844Z,98684.08
2022-07-29T23:00:16.353Z,98685.61
2022-07-29T23:02:43.568Z,98680.48
2022-07-29T23:05:18.504Z,98675.61
2022-07-29T23:07:48.984Z,98675.70
2022-07-29T23:10:20.784Z,98674.41
2022-07-29T23:12:50.464Z,98667.73
2022-07-29T23:15:20.330Z,98660.20
2022-07-29T23:17:48.481Z,98659.41
2022-07-29T23:20:15.817Z,98655.42
2022-07-29T23:22:44.320Z,98647.69
2022-07-29T23:25:11.607Z,98648.27
2022-07-29T23:27:39.078Z,98645.20
2022-07-29T23:30:07.164Z,98643.42
2022-07-29T23:32:35.316Z,98642.73
2022-07-29T23:35:07.032Z,98647.23
2022-07-29T23:37:35.702Z,98649.70
2022-07-29T23:40:03.630Z,98651.75
2022-07-29T23:42:31.065Z,98645.17
2022-07-29T23:44:58.915Z,98641.60
2022-07-29T23:47:30.192Z,98637.14
2022-07-29T23:49:57.669Z,98636.91
2022-07-29T23:52:27.730Z,98637.72
2022-07-29T23:55:36.407Z,98628.11
2022-07-29T23:57:46.095Z,98628.59
